sensor_id;sensor_type;location;lat;lon;timestamp;temperature;humidity
20845;DHT22;10583;49.084;8.646;2023-01-10T00:00:37;5.70;99.90
20845;DHT22;10583;49.084;8.646;2023-01-10T00:03:06;5.70;99.90
20845;DHT22;10583;49.084;8.646;2023-01-10T00:05:33;5.70;99.90
20845;DHT22;10583;49.084;8.646;2023-01-10T00:08:00;5.70;99.90
20845;DHT22;10583;49.084;8.646;2023-01-10T00:10:28;5.70;99.90
20845;DHT22;10583;49.084;8.646;2023-01-10T00:12:55;5.70;99.90
20845;DHT22;10583;49.084;8.646;2023-01-10T00:15:41;5.60;99.90
20845;DHT22;10583;49.084;8.646;2023-01-10T00:18:08;5.60;99.90
20845;DHT22;10583;49.084;8.646;2023-01-10T00:20:35;5.60;99.90
20845;DHT22;10583;49.084;8.646;2023-01-10T00:23:01;5.60;99.90
20845;DHT22;10583;49.084;8.646;2023-01-10T00:25:30;5.60;99.90
20845;DHT22;10583;49.084;8.646;2023-01-10T00:27:58;5.60;99.90
20845;DHT22;10583;49.084;8.646;2023-01-10T00:30:36;5.60;99.90
20845;DHT22;10583;49.084;8.646;2023-01-10T00:33:05;5.60;99.90
20845;DHT22;10583;49.084;8.646;2023-01-10T00:35:32;5.70;99.90
20845;DHT22;10583;49.084;8.646;2023-01-10T00:37:59;5.60;99.90
20845;DHT22;10583;49.084;8.646;2023-01-10T00:40:30;5.60;99.90
20845;DHT22;10583;49.084;8.646;2023-01-10T00:42:57;5.60;99.90
20845;DHT22;10583;49.084;8.646;2023-01-10T00:45:43;5.60;99.90
20845;DHT22;10583;49.084;8.646;2023-01-10T00:48:11;5.60;99.90
20845;DHT22;10583;49.084;8.646;2023-01-10T00:50:38;5.60;99.90
20845;DHT22;10583;49.084;8.646;2023-01-10T00:53:04;5.60;99.90
20845;DHT22;10583;49.084;8.646;2023-01-10T00:55:31;5.60;99.90
20845;DHT22;10583;49.084;8.646;2023-01-10T00:57:58;5.60;99.90
20845;DHT22;10583;49.084;8.646;2023-01-10T01:00:25;5.60;99.90
20845;DHT22;10583;49.084;8.646;2023-01-10T01:02:52;5.60;99.90
20845;DHT22;10583;49.084;8.646;2023-01-10T01:05:20;5.60;99.90
20845;DHT22;10583;49.084;8.646;2023-01-10T01:07:47;5.60;99.90
20845;DHT22;10583;49.084;8.646;2023-01-10T01:10:15;5.50;99.90
20845;DHT22;10583;49.084;8.646;2023-01-10T01:12:54;5.60;99.90
20845;DHT22;10583;49.084;8.646;2023-01-10T01:15:22;5.60;99.90
20845;DHT22;10583;49.084;8.646;2023-01-10T01:17:48;5.60;99.90
20845;DHT22;10583;49.084;8.646;2023-01-10T01:20:15;5.60;99.90
20845;DHT22;10583;49.084;8.646;2023-01-10T01:22:43;5.70;99.90
20845;DHT22;10583;49.084;8.646;2023-01-10T01:25:10;5.60;99.90
20845;DHT22;10583;49.084;8.646;2023-01-10T01:27:37;5.70;99.90
20845;DHT22;10583;49.084;8.646;2023-01-10T01:30:04;5.60;99.90
20845;DHT22;10583;49.084;8.646;2023-01-10T01:32:32;5.60;99.90
20845;DHT22;10583;49.084;8.646;2023-01-10T01:34:59;5.60;99.90
20845;DHT22;10583;49.084;8.646;2023-01-10T01:37:25;5.60;99.90
20845;DHT22;10583;49.084;8.646;2023-01-10T01:39:54;5.60;99.90
20845;DHT22;10583;49.084;8.646;2023-01-10T01:42:24;5.60;99.90
20845;DHT22;10583;49.084;8.646;2023-01-10T01:48:29;5.60;99.90
20845;DHT22;10583;49.084;8.646;2023-01-10T01:51:01;5.60;99.90
20845;DHT22;10583;49.084;8.646;2023-01-10T01:53:35;5.60;99.90
20845;DHT22;10583;49.084;8.646;2023-01-10T01:56:08;5.60;99.90
20845;DHT22;10583;49.084;8.646;2023-01-10T01:58:40;5.60;99.90
20845;DHT22;10583;49.084;8.646;2023-01-10T02:01:07;5.60;99.90
20845;DHT22;10583;49.084;8.646;2023-01-10T02:03:35;5.60;99.90
20845;DHT22;10583;49.084;8.646;2023-01-10T02:06:03;5.60;99.90
20845;DHT22;10583;49.084;8.646;2023-01-10T02:08:30;5.60;99.90
20845;DHT22;10583;49.084;8.646;2023-01-10T02:11:01;5.60;99.90
20845;DHT22;10583;49.084;8.646;2023-01-10T02:13:37;5.60;99.90
20845;DHT22;10583;49.084;8.646;2023-01-10T02:16:06;5.60;99.90
20845;DHT22;10583;49.084;8.646;2023-01-10T02:18:33;5.60;99.90
20845;DHT22;10583;49.084;8.646;2023-01-10T02:21:17;5.60;99.90
20845;DHT22;10583;49.084;8.646;2023-01-10T02:30:19;5.60;99.90
20845;DHT22;10583;49.084;8.646;2023-01-10T02:32:54;5.60;99.90
20845;DHT22;10583;49.084;8.646;2023-01-10T02:35:34;5.60;99.90
20845;DHT22;10583;49.084;8.646;2023-01-10T02:38:07;5.60;99.90
20845;DHT22;10583;49.084;8.646;2023-01-10T02:40:42;5.60;99.90
20845;DHT22;10583;49.084;8.646;2023-01-10T02:43:14;5.60;99.90
20845;DHT22;10583;49.084;8.646;2023-01-10T02:45:46;5.60;99.90
20845;DHT22;10583;49.084;8.646;2023-01-10T02:48:16;5.60;99.90
20845;DHT22;10583;49.084;8.646;2023-01-10T02:50:49;5.60;99.90
20845;DHT22;10583;49.084;8.646;2023-01-10T02:53:22;5.60;99.90
20845;DHT22;10583;49.084;8.646;2023-01-10T02:59:05;5.60;99.90
20845;DHT22;10583;49.084;8.646;2023-01-10T03:01:45;5.60;99.90
20845;DHT22;10583;49.084;8.646;2023-01-10T03:04:22;5.60;99.90
20845;DHT22;10583;49.084;8.646;2023-01-10T03:06:54;5.60;99.90
20845;DHT22;10583;49.084;8.646;2023-01-10T03:09:26;5.60;99.90
20845;DHT22;10583;49.084;8.646;2023-01-10T03:12:02;5.60;99.90
20845;DHT22;10583;49.084;8.646;2023-01-10T03:14:31;5.60;99.90
20845;DHT22;10583;49.084;8.646;2023-01-10T03:17:01;5.60;99.90
20845;DHT22;10583;49.084;8.646;2023-01-10T03:19:33;5.60;99.90
20845;DHT22;10583;49.084;8.646;2023-01-10T03:22:02;5.50;99.90
20845;DHT22;10583;49.084;8.646;2023-01-10T03:24:34;5.50;99.90
20845;DHT22;10583;49.084;8.646;2023-01-10T03:27:08;5.50;99.90
20845;DHT22;10583;49.084;8.646;2023-01-10T03:29:45;5.40;99.90
20845;DHT22;10583;49.084;8.646;2023-01-10T03:32:20;5.30;99.90
20845;DHT22;10583;49.084;8.646;2023-01-10T03:34:51;5.30;99.90
20845;DHT22;10583;49.084;8.646;2023-01-10T03:37:23;5.20;99.90
20845;DHT22;10583;49.084;8.646;2023-01-10T03:39:56;5.20;99.90
20845;DHT22;10583;49.084;8.646;2023-01-10T03:42:28;5.10;99.90
20845;DHT22;10583;49.084;8.646;2023-01-10T03:45:22;5.10;99.90
20845;DHT22;10583;49.084;8.646;2023-01-10T03:47:51;5.00;99.90
20845;DHT22;10583;49.084;8.646;2023-01-10T03:50:22;5.00;99.90
20845;DHT22;10583;49.084;8.646;2023-01-10T03:52:50;4.90;99.90
20845;DHT22;10583;49.084;8.646;2023-01-10T03:55:20;4.90;99.90
20845;DHT22;10583;49.084;8.646;2023-01-10T03:57:47;4.90;99.90
20845;DHT22;10583;49.084;8.646;2023-01-10T04:00:15;4.80;99.90
20845;DHT22;10583;49.084;8.646;2023-01-10T04:02:42;4.80;99.90
20845;DHT22;10583;49.084;8.646;2023-01-10T04:05:09;4.80;99.90
20845;DHT22;10583;49.084;8.646;2023-01-10T04:07:38;4.80;99.90
20845;DHT22;10583;49.084;8.646;2023-01-10T04:10:05;4.80;99.90
20845;DHT22;10583;49.084;8.646;2023-01-10T04:12:32;4.80;99.90
20845;DHT22;10583;49.084;8.646;2023-01-10T04:14:59;4.70;99.90
20845;DHT22;10583;49.084;8.646;2023-01-10T04:17:27;4.70;99.90
20845;DHT22;10583;49.084;8.646;2023-01-10T04:19:53;4.70;99.90
20845;DHT22;10583;49.084;8.646;2023-01-10T04:22:20;4.70;99.90
20845;DHT22;10583;49.084;8.646;2023-01-10T04:24:48;4.70;99.90
20845;DHT22;10583;49.084;8.646;2023-01-10T04:27:16;4.70;99.90
20845;DHT22;10583;49.084;8.646;2023-01-10T04:29:43;4.80;99.90
20845;DHT22;10583;49.084;8.646;2023-01-10T04:32:09;4.80;99.90
20845;DHT22;10583;49.084;8.646;2023-01-10T04:34:36;4.90;99.90
20845;DHT22;10583;49.084;8.646;2023-01-10T04:37:03;5.00;99.90
20845;DHT22;10583;49.084;8.646;2023-01-10T04:39:30;5.00;99.90
20845;DHT22;10583;49.084;8.646;2023-01-10T04:41:58;5.10;99.90
20845;DHT22;10583;49.084;8.646;2023-01-10T04:44:24;5.10;99.90
20845;DHT22;10583;49.084;8.646;2023-01-10T04:46:51;5.10;99.90
20845;DHT22;10583;49.084;8.646;2023-01-10T04:49:18;5.10;99.90
20845;DHT22;10583;49.084;8.646;2023-01-10T04:51:44;5.10;99.90
20845;DHT22;10583;49.084;8.646;2023-01-10T04:54:11;5.10;99.90
20845;DHT22;10583;49.084;8.646;2023-01-10T04:56:38;5.10;99.90
20845;DHT22;10583;49.084;8.646;2023-01-10T04:59:08;5.10;99.90
20845;DHT22;10583;49.084;8.646;2023-01-10T05:01:35;5.10;99.90
20845;DHT22;10583;49.084;8.646;2023-01-10T05:04:04;5.10;99.90
20845;DHT22;10583;49.084;8.646;2023-01-10T05:06:31;5.10;99.90
20845;DHT22;10583;49.084;8.646;2023-01-10T05:08:58;5.10;99.90
20845;DHT22;10583;49.084;8.646;2023-01-10T05:11:25;5.00;99.90
20845;DHT22;10583;49.084;8.646;2023-01-10T05:13:51;5.10;99.90
20845;DHT22;10583;49.084;8.646;2023-01-10T05:16:19;5.00;99.90
20845;DHT22;10583;49.084;8.646;2023-01-10T05:18:46;5.10;99.90
20845;DHT22;10583;49.084;8.646;2023-01-10T05:21:13;5.10;99.90
20845;DHT22;10583;49.084;8.646;2023-01-10T05:23:40;5.20;99.90
20845;DHT22;10583;49.084;8.646;2023-01-10T05:26:09;5.20;99.90
20845;DHT22;10583;49.084;8.646;2023-01-10T05:28:36;5.20;99.90
20845;DHT22;10583;49.084;8.646;2023-01-10T05:31:04;5.30;99.90
20845;DHT22;10583;49.084;8.646;2023-01-10T05:33:33;5.30;99.90
20845;DHT22;10583;49.084;8.646;2023-01-10T05:36:00;5.30;99.90
20845;DHT22;10583;49.084;8.646;2023-01-10T05:38:27;5.30;99.90
20845;DHT22;10583;49.084;8.646;2023-01-10T05:40:54;5.30;99.90
20845;DHT22;10583;49.084;8.646;2023-01-10T05:43:21;5.30;99.90
20845;DHT22;10583;49.084;8.646;2023-01-10T05:45:48;5.30;99.90
20845;DHT22;10583;49.084;8.646;2023-01-10T05:48:15;5.30;99.90
20845;DHT22;10583;49.084;8.646;2023-01-10T05:50:44;5.30;99.90
20845;DHT22;10583;49.084;8.646;2023-01-10T05:53:10;5.30;99.90
20845;DHT22;10583;49.084;8.646;2023-01-10T05:55:37;5.30;99.90
20845;DHT22;10583;49.084;8.646;2023-01-10T05:58:04;5.30;99.90
20845;DHT22;10583;49.084;8.646;2023-01-10T06:00:30;5.30;99.90
20845;DHT22;10583;49.084;8.646;2023-01-10T06:02:57;5.30;99.90
20845;DHT22;10583;49.084;8.646;2023-01-10T06:05:24;5.30;99.90
20845;DHT22;10583;49.084;8.646;2023-01-10T06:07:52;5.30;99.90
20845;DHT22;10583;49.084;8.646;2023-01-10T06:10:18;5.30;99.90
20845;DHT22;10583;49.084;8.646;2023-01-10T06:12:45;5.30;99.90
20845;DHT22;10583;49.084;8.646;2023-01-10T06:15:14;5.30;99.90
20845;DHT22;10583;49.084;8.646;2023-01-10T06:17:41;5.30;99.90
20845;DHT22;10583;49.084;8.646;2023-01-10T06:20:09;5.30;99.90
20845;DHT22;10583;49.084;8.646;2023-01-10T06:22:39;5.30;99.90
20845;DHT22;10583;49.084;8.646;2023-01-10T06:25:08;5.20;99.90
20845;DHT22;10583;49.084;8.646;2023-01-10T06:27:35;5.20;99.90
20845;DHT22;10583;49.084;8.646;2023-01-10T06:30:04;5.20;99.90
20845;DHT22;10583;49.084;8.646;2023-01-10T06:32:31;5.20;99.90
20845;DHT22;10583;49.084;8.646;2023-01-10T06:34:57;5.20;99.90
20845;DHT22;10583;49.084;8.646;2023-01-10T06:37:24;5.20;99.90
20845;DHT22;10583;49.084;8.646;2023-01-10T06:39:51;5.20;99.90
20845;DHT22;10583;49.084;8.646;2023-01-10T06:42:19;5.20;99.90
20845;DHT22;10583;49.084;8.646;2023-01-10T06:44:45;5.30;99.90
20845;DHT22;10583;49.084;8.646;2023-01-10T06:47:12;5.20;99.90
20845;DHT22;10583;49.084;8.646;2023-01-10T06:49:39;5.20;99.90
20845;DHT22;10583;49.084;8.646;2023-01-10T06:52:05;5.30;99.90
20845;DHT22;10583;49.084;8.646;2023-01-10T06:54:32;5.30;99.90
20845;DHT22;10583;49.084;8.646;2023-01-10T06:56:58;5.30;99.90
20845;DHT22;10583;49.084;8.646;2023-01-10T06:59:26;5.30;99.90
20845;DHT22;10583;49.084;8.646;2023-01-10T07:01:53;5.30;99.90
20845;DHT22;10583;49.084;8.646;2023-01-10T07:04:20;5.30;99.90
20845;DHT22;10583;49.084;8.646;2023-01-10T07:06:46;5.30;99.90
20845;DHT22;10583;49.084;8.646;2023-01-10T07:09:13;5.30;99.90
20845;DHT22;10583;49.084;8.646;2023-01-10T07:11:40;5.30;99.90
20845;DHT22;10583;49.084;8.646;2023-01-10T07:14:06;5.30;99.90
20845;DHT22;10583;49.084;8.646;2023-01-10T07:16:35;5.30;99.90
20845;DHT22;10583;49.084;8.646;2023-01-10T07:19:02;5.30;99.90
20845;DHT22;10583;49.084;8.646;2023-01-10T07:21:28;5.30;99.90
20845;DHT22;10583;49.084;8.646;2023-01-10T07:23:55;5.30;99.90
20845;DHT22;10583;49.084;8.646;2023-01-10T07:26:22;5.30;99.90
20845;DHT22;10583;49.084;8.646;2023-01-10T07:28:49;5.30;99.90
20845;DHT22;10583;49.084;8.646;2023-01-10T07:31:16;5.30;99.90
20845;DHT22;10583;49.084;8.646;2023-01-10T07:33:45;5.30;99.90
20845;DHT22;10583;49.084;8.646;2023-01-10T07:36:12;5.20;99.90
20845;DHT22;10583;49.084;8.646;2023-01-10T07:38:39;5.20;99.90
20845;DHT22;10583;49.084;8.646;2023-01-10T07:41:06;5.20;99.90
20845;DHT22;10583;49.084;8.646;2023-01-10T07:43:32;5.20;99.90
20845;DHT22;10583;49.084;8.646;2023-01-10T07:46:00;5.20;99.90
20845;DHT22;10583;49.084;8.646;2023-01-10T07:48:27;5.20;99.90
20845;DHT22;10583;49.084;8.646;2023-01-10T07:50:56;5.30;99.90
20845;DHT22;10583;49.084;8.646;2023-01-10T07:53:23;5.30;99.90
20845;DHT22;10583;49.084;8.646;2023-01-10T07:55:50;5.30;99.90
20845;DHT22;10583;49.084;8.646;2023-01-10T07:58:16;5.30;99.90
20845;DHT22;10583;49.084;8.646;2023-01-10T08:00:43;5.20;99.90
20845;DHT22;10583;49.084;8.646;2023-01-10T08:03:11;5.20;99.90
20845;DHT22;10583;49.084;8.646;2023-01-10T08:05:38;5.20;99.90
20845;DHT22;10583;49.084;8.646;2023-01-10T08:08:08;5.20;99.90
20845;DHT22;10583;49.084;8.646;2023-01-10T08:10:36;5.30;99.90
20845;DHT22;10583;49.084;8.646;2023-01-10T08:13:03;5.30;99.90
20845;DHT22;10583;49.084;8.646;2023-01-10T08:15:30;5.40;99.90
20845;DHT22;10583;49.084;8.646;2023-01-10T08:17:58;5.50;99.90
20845;DHT22;10583;49.084;8.646;2023-01-10T08:20:25;5.50;99.90
20845;DHT22;10583;49.084;8.646;2023-01-10T08:22:52;5.60;99.90
20845;DHT22;10583;49.084;8.646;2023-01-10T08:25:20;5.60;99.90
20845;DHT22;10583;49.084;8.646;2023-01-10T08:27:46;5.60;99.90
20845;DHT22;10583;49.084;8.646;2023-01-10T08:30:14;5.60;99.90
20845;DHT22;10583;49.084;8.646;2023-01-10T08:32:40;5.60;99.90
20845;DHT22;10583;49.084;8.646;2023-01-10T08:35:08;5.70;99.90
20845;DHT22;10583;49.084;8.646;2023-01-10T08:37:35;5.70;99.90
20845;DHT22;10583;49.084;8.646;2023-01-10T08:40:01;5.70;99.90
20845;DHT22;10583;49.084;8.646;2023-01-10T08:42:29;5.70;99.90
20845;DHT22;10583;49.084;8.646;2023-01-10T08:44:56;5.60;99.90
20845;DHT22;10583;49.084;8.646;2023-01-10T08:47:24;5.70;99.90
20845;DHT22;10583;49.084;8.646;2023-01-10T08:49:51;5.70;99.90
20845;DHT22;10583;49.084;8.646;2023-01-10T08:52:18;5.70;99.90
20845;DHT22;10583;49.084;8.646;2023-01-10T08:54:46;5.70;99.90
20845;DHT22;10583;49.084;8.646;2023-01-10T08:57:14;5.70;99.90
20845;DHT22;10583;49.084;8.646;2023-01-10T08:59:42;5.80;99.90
20845;DHT22;10583;49.084;8.646;2023-01-10T09:02:10;5.80;99.90
20845;DHT22;10583;49.084;8.646;2023-01-10T09:04:37;5.90;99.90
20845;DHT22;10583;49.084;8.646;2023-01-10T09:07:04;5.90;99.90
20845;DHT22;10583;49.084;8.646;2023-01-10T09:09:31;6.00;99.90
20845;DHT22;10583;49.084;8.646;2023-01-10T09:11:57;6.00;99.90
20845;DHT22;10583;49.084;8.646;2023-01-10T09:14:24;6.00;99.90
20845;DHT22;10583;49.084;8.646;2023-01-10T09:16:52;6.00;99.90
20845;DHT22;10583;49.084;8.646;2023-01-10T09:19:19;6.00;99.90
20845;DHT22;10583;49.084;8.646;2023-01-10T09:21:45;6.10;99.90
20845;DHT22;10583;49.084;8.646;2023-01-10T09:24:12;6.10;99.90
20845;DHT22;10583;49.084;8.646;2023-01-10T09:26:39;6.20;99.90
20845;DHT22;10583;49.084;8.646;2023-01-10T09:29:06;6.20;99.90
20845;DHT22;10583;49.084;8.646;2023-01-10T09:31:32;6.30;99.90
20845;DHT22;10583;49.084;8.646;2023-01-10T09:34:00;6.40;99.90
20845;DHT22;10583;49.084;8.646;2023-01-10T09:36:27;6.40;99.90
20845;DHT22;10583;49.084;8.646;2023-01-10T09:38:54;6.30;99.90
20845;DHT22;10583;49.084;8.646;2023-01-10T09:41:47;6.40;99.90
20845;DHT22;10583;49.084;8.646;2023-01-10T09:44:18;6.40;99.90
20845;DHT22;10583;49.084;8.646;2023-01-10T09:46:53;6.30;99.90
20845;DHT22;10583;49.084;8.646;2023-01-10T09:49:38;6.40;99.90
20845;DHT22;10583;49.084;8.646;2023-01-10T09:52:13;6.50;99.90
20845;DHT22;10583;49.084;8.646;2023-01-10T09:54:43;6.50;99.90
20845;DHT22;10583;49.084;8.646;2023-01-10T09:57:14;6.50;99.90
20845;DHT22;10583;49.084;8.646;2023-01-10T09:59:42;6.50;99.90
20845;DHT22;10583;49.084;8.646;2023-01-10T10:02:20;6.60;99.90
20845;DHT22;10583;49.084;8.646;2023-01-10T10:05:00;6.60;99.90
20845;DHT22;10583;49.084;8.646;2023-01-10T10:07:29;6.70;99.90
20845;DHT22;10583;49.084;8.646;2023-01-10T10:09:56;6.80;99.90
20845;DHT22;10583;49.084;8.646;2023-01-10T10:12:27;6.80;99.90
20845;DHT22;10583;49.084;8.646;2023-01-10T10:15:04;6.80;99.90
20845;DHT22;10583;49.084;8.646;2023-01-10T10:17:41;6.90;99.90
20845;DHT22;10583;49.084;8.646;2023-01-10T10:20:30;7.00;99.90
20845;DHT22;10583;49.084;8.646;2023-01-10T10:23:17;7.00;99.90
20845;DHT22;10583;49.084;8.646;2023-01-10T10:26:00;7.10;99.90
20845;DHT22;10583;49.084;8.646;2023-01-10T10:29:03;7.10;99.90
20845;DHT22;10583;49.084;8.646;2023-01-10T10:31:42;7.00;99.90
20845;DHT22;10583;49.084;8.646;2023-01-10T10:34:19;6.90;99.90
20845;DHT22;10583;49.084;8.646;2023-01-10T10:36:52;6.80;99.90
20845;DHT22;10583;49.084;8.646;2023-01-10T10:39:22;6.80;99.90
20845;DHT22;10583;49.084;8.646;2023-01-10T10:41:52;6.90;99.90
20845;DHT22;10583;49.084;8.646;2023-01-10T10:44:30;7.00;99.90
20845;DHT22;10583;49.084;8.646;2023-01-10T10:46:58;6.80;99.90
20845;DHT22;10583;49.084;8.646;2023-01-10T10:49:34;6.80;99.90
20845;DHT22;10583;49.084;8.646;2023-01-10T10:52:09;6.90;99.90
20845;DHT22;10583;49.084;8.646;2023-01-10T10:54:37;7.00;99.90
20845;DHT22;10583;49.084;8.646;2023-01-10T10:57:05;7.10;99.90
20845;DHT22;10583;49.084;8.646;2023-01-10T10:59:31;7.10;99.90
20845;DHT22;10583;49.084;8.646;2023-01-10T11:01:58;7.00;99.90
20845;DHT22;10583;49.084;8.646;2023-01-10T11:04:25;6.90;99.90
20845;DHT22;10583;49.084;8.646;2023-01-10T11:06:52;6.80;99.90
20845;DHT22;10583;49.084;8.646;2023-01-10T11:09:23;6.90;99.90
20845;DHT22;10583;49.084;8.646;2023-01-10T11:11:53;7.10;99.90
20845;DHT22;10583;49.084;8.646;2023-01-10T11:14:40;7.20;99.90
20845;DHT22;10583;49.084;8.646;2023-01-10T11:17:19;7.10;99.90
20845;DHT22;10583;49.084;8.646;2023-01-10T11:19:55;7.30;99.90
20845;DHT22;10583;49.084;8.646;2023-01-10T11:22:23;7.40;99.90
20845;DHT22;10583;49.084;8.646;2023-01-10T11:24:53;7.60;99.90
20845;DHT22;10583;49.084;8.646;2023-01-10T11:27:22;7.90;99.90
20845;DHT22;10583;49.084;8.646;2023-01-10T11:29:51;7.80;99.90
20845;DHT22;10583;49.084;8.646;2023-01-10T11:32:27;8.00;99.90
20845;DHT22;10583;49.084;8.646;2023-01-10T11:34:57;8.30;99.90
20845;DHT22;10583;49.084;8.646;2023-01-10T11:37:26;8.40;99.90
20845;DHT22;10583;49.084;8.646;2023-01-10T11:40:16;8.70;99.90
20845;DHT22;10583;49.084;8.646;2023-01-10T11:42:43;8.70;99.90
20845;DHT22;10583;49.084;8.646;2023-01-10T11:45:27;9.10;99.90
20845;DHT22;10583;49.084;8.646;2023-01-10T11:48:02;9.00;99.90
20845;DHT22;10583;49.084;8.646;2023-01-10T11:50:34;9.00;99.90
20845;DHT22;10583;49.084;8.646;2023-01-10T11:53:01;9.20;99.90
20845;DHT22;10583;49.084;8.646;2023-01-10T11:55:33;9.20;99.90
20845;DHT22;10583;49.084;8.646;2023-01-10T11:58:03;9.30;99.90
20845;DHT22;10583;49.084;8.646;2023-01-10T12:00:32;8.90;99.90
20845;DHT22;10583;49.084;8.646;2023-01-10T12:03:00;8.90;99.90
20845;DHT22;10583;49.084;8.646;2023-01-10T12:05:27;8.70;99.90
20845;DHT22;10583;49.084;8.646;2023-01-10T12:07:55;8.80;99.90
20845;DHT22;10583;49.084;8.646;2023-01-10T12:10:24;8.90;99.90
20845;DHT22;10583;49.084;8.646;2023-01-10T12:12:54;8.90;99.90
20845;DHT22;10583;49.084;8.646;2023-01-10T12:15:25;8.80;99.90
20845;DHT22;10583;49.084;8.646;2023-01-10T12:17:53;8.80;99.90
20845;DHT22;10583;49.084;8.646;2023-01-10T12:20:21;8.70;99.90
20845;DHT22;10583;49.084;8.646;2023-01-10T12:22:51;8.70;99.90
20845;DHT22;10583;49.084;8.646;2023-01-10T12:25:22;8.40;99.90
20845;DHT22;10583;49.084;8.646;2023-01-10T12:27:50;8.40;99.90
20845;DHT22;10583;49.084;8.646;2023-01-10T12:30:23;8.40;99.90
20845;DHT22;10583;49.084;8.646;2023-01-10T12:32:56;8.40;99.90
20845;DHT22;10583;49.084;8.646;2023-01-10T12:35:42;8.50;99.90
20845;DHT22;10583;49.084;8.646;2023-01-10T12:38:21;8.60;99.90
20845;DHT22;10583;49.084;8.646;2023-01-10T12:41:06;8.70;99.90
20845;DHT22;10583;49.084;8.646;2023-01-10T12:43:37;8.60;99.90
20845;DHT22;10583;49.084;8.646;2023-01-10T12:46:28;8.40;99.90
20845;DHT22;10583;49.084;8.646;2023-01-10T12:49:01;8.30;99.90
20845;DHT22;10583;49.084;8.646;2023-01-10T12:51:30;8.40;99.90
20845;DHT22;10583;49.084;8.646;2023-01-10T12:54:03;8.30;99.90
20845;DHT22;10583;49.084;8.646;2023-01-10T12:56:31;8.20;99.90
20845;DHT22;10583;49.084;8.646;2023-01-10T12:59:02;8.10;99.90
20845;DHT22;10583;49.084;8.646;2023-01-10T13:01:33;8.00;99.90
20845;DHT22;10583;49.084;8.646;2023-01-10T13:04:06;8.00;99.90
20845;DHT22;10583;49.084;8.646;2023-01-10T13:06:37;8.00;99.90
20845;DHT22;10583;49.084;8.646;2023-01-10T13:09:05;8.10;99.90
20845;DHT22;10583;49.084;8.646;2023-01-10T13:11:39;8.00;99.90
20845;DHT22;10583;49.084;8.646;2023-01-10T13:14:10;8.00;99.90
20845;DHT22;10583;49.084;8.646;2023-01-10T13:16:43;8.10;99.90
20845;DHT22;10583;49.084;8.646;2023-01-10T13:19:25;8.00;99.90
20845;DHT22;10583;49.084;8.646;2023-01-10T13:22:11;8.00;99.90
20845;DHT22;10583;49.084;8.646;2023-01-10T13:24:54;7.90;99.90
20845;DHT22;10583;49.084;8.646;2023-01-10T13:27:22;8.00;99.90
20845;DHT22;10583;49.084;8.646;2023-01-10T13:29:51;8.10;99.90
20845;DHT22;10583;49.084;8.646;2023-01-10T13:32:22;8.20;99.90
20845;DHT22;10583;49.084;8.646;2023-01-10T13:34:49;8.20;99.90
20845;DHT22;10583;49.084;8.646;2023-01-10T13:37:22;8.20;99.90
20845;DHT22;10583;49.084;8.646;2023-01-10T13:39:52;8.30;99.90
20845;DHT22;10583;49.084;8.646;2023-01-10T13:42:28;8.40;99.90
20845;DHT22;10583;49.084;8.646;2023-01-10T13:45:21;8.50;99.90
20845;DHT22;10583;49.084;8.646;2023-01-10T13:47:59;8.40;99.90
20845;DHT22;10583;49.084;8.646;2023-01-10T13:50:50;8.30;99.90
20845;DHT22;10583;49.084;8.646;2023-01-10T13:53:42;8.30;99.90
20845;DHT22;10583;49.084;8.646;2023-01-10T13:56:27;8.20;99.90
20845;DHT22;10583;49.084;8.646;2023-01-10T13:58:54;8.10;99.90
20845;DHT22;10583;49.084;8.646;2023-01-10T14:01:38;8.10;99.90
20845;DHT22;10583;49.084;8.646;2023-01-10T14:04:26;8.10;99.90
20845;DHT22;10583;49.084;8.646;2023-01-10T14:06:55;8.10;99.90
20845;DHT22;10583;49.084;8.646;2023-01-10T14:09:35;8.10;99.90
20845;DHT22;10583;49.084;8.646;2023-01-10T14:12:06;8.20;99.90
20845;DHT22;10583;49.084;8.646;2023-01-10T14:14:36;8.20;99.90
20845;DHT22;10583;49.084;8.646;2023-01-10T14:17:13;8.10;99.90
20845;DHT22;10583;49.084;8.646;2023-01-10T14:19:43;8.00;99.90
20845;DHT22;10583;49.084;8.646;2023-01-10T14:22:24;8.00;99.90
20845;DHT22;10583;49.084;8.646;2023-01-10T14:24:52;7.90;99.90
20845;DHT22;10583;49.084;8.646;2023-01-10T14:27:20;7.70;99.90
20845;DHT22;10583;49.084;8.646;2023-01-10T14:29:50;7.60;99.90
20845;DHT22;10583;49.084;8.646;2023-01-10T14:32:29;7.60;99.90
20845;DHT22;10583;49.084;8.646;2023-01-10T14:35:01;7.60;99.90
20845;DHT22;10583;49.084;8.646;2023-01-10T14:37:31;7.50;99.90
20845;DHT22;10583;49.084;8.646;2023-01-10T14:40:05;7.50;99.90
20845;DHT22;10583;49.084;8.646;2023-01-10T14:42:34;7.50;99.90
20845;DHT22;10583;49.084;8.646;2023-01-10T14:45:02;7.50;99.90
20845;DHT22;10583;49.084;8.646;2023-01-10T14:47:32;7.50;99.90
20845;DHT22;10583;49.084;8.646;2023-01-10T14:50:01;7.50;99.90
20845;DHT22;10583;49.084;8.646;2023-01-10T14:52:29;7.40;99.90
20845;DHT22;10583;49.084;8.646;2023-01-10T14:55:03;7.40;99.90
20845;DHT22;10583;49.084;8.646;2023-01-10T14:57:31;7.30;99.90
20845;DHT22;10583;49.084;8.646;2023-01-10T15:00:03;7.20;99.90
20845;DHT22;10583;49.084;8.646;2023-01-10T15:02:30;7.20;99.90
20845;DHT22;10583;49.084;8.646;2023-01-10T15:04:58;7.20;99.90
20845;DHT22;10583;49.084;8.646;2023-01-10T15:07:27;7.20;99.90
20845;DHT22;10583;49.084;8.646;2023-01-10T15:09:55;7.20;99.90
20845;DHT22;10583;49.084;8.646;2023-01-10T15:12:27;7.20;99.90
20845;DHT22;10583;49.084;8.646;2023-01-10T15:14:59;7.10;99.90
20845;DHT22;10583;49.084;8.646;2023-01-10T15:17:28;7.10;99.90
20845;DHT22;10583;49.084;8.646;2023-01-10T15:19:56;7.00;99.90
20845;DHT22;10583;49.084;8.646;2023-01-10T15:22:28;7.00;99.90
20845;DHT22;10583;49.084;8.646;2023-01-10T15:25:01;6.90;99.90
20845;DHT22;10583;49.084;8.646;2023-01-10T15:27:29;6.90;99.90
20845;DHT22;10583;49.084;8.646;2023-01-10T15:29:57;6.80;99.90
20845;DHT22;10583;49.084;8.646;2023-01-10T15:32:27;6.80;99.90
20845;DHT22;10583;49.084;8.646;2023-01-10T15:34:56;6.70;99.90
20845;DHT22;10583;49.084;8.646;2023-01-10T15:37:26;6.70;99.90
20845;DHT22;10583;49.084;8.646;2023-01-10T15:39:59;6.60;99.90
20845;DHT22;10583;49.084;8.646;2023-01-10T15:42:26;6.60;99.90
20845;DHT22;10583;49.084;8.646;2023-01-10T15:44:53;6.60;99.90
20845;DHT22;10583;49.084;8.646;2023-01-10T15:47:38;6.60;99.90
20845;DHT22;10583;49.084;8.646;2023-01-10T15:50:20;6.50;99.90
20845;DHT22;10583;49.084;8.646;2023-01-10T15:52:50;6.50;99.90
20845;DHT22;10583;49.084;8.646;2023-01-10T15:55:35;6.40;99.90
20845;DHT22;10583;49.084;8.646;2023-01-10T15:58:03;6.30;99.90
20845;DHT22;10583;49.084;8.646;2023-01-10T16:00:30;6.30;99.90
20845;DHT22;10583;49.084;8.646;2023-01-10T16:02:57;6.30;99.90
20845;DHT22;10583;49.084;8.646;2023-01-10T16:05:24;6.20;99.90
20845;DHT22;10583;49.084;8.646;2023-01-10T16:07:52;6.20;99.90
20845;DHT22;10583;49.084;8.646;2023-01-10T16:10:20;6.20;99.90
20845;DHT22;10583;49.084;8.646;2023-01-10T16:12:47;6.10;99.90
20845;DHT22;10583;49.084;8.646;2023-01-10T16:15:33;6.10;99.90
20845;DHT22;10583;49.084;8.646;2023-01-10T16:18:01;6.00;99.90